sensor_id;sensor_type;location;lat;lon;timestamp;temperature;humidity
8093;DHT22;4089;52.420;13.334;2024-03-08T00:02:17;1.20;99.90
8093;DHT22;4089;52.420;13.334;2024-03-08T00:04:47;1.10;99.90
8093;DHT22;4089;52.420;13.334;2024-03-08T00:07:17;1.10;99.90
8093;DHT22;4089;52.420;13.334;2024-03-08T00:09:45;1.00;99.90
8093;DHT22;4089;52.420;13.334;2024-03-08T00:12:13;1.00;99.90
8093;DHT22;4089;52.420;13.334;2024-03-08T00:14:41;1.00;99.90
8093;DHT22;4089;52.420;13.334;2024-03-08T00:17:12;0.90;99.90
8093;DHT22;4089;52.420;13.334;2024-03-08T00:19:40;0.90;99.90
8093;DHT22;4089;52.420;13.334;2024-03-08T00:22:12;0.90;99.90
8093;DHT22;4089;52.420;13.334;2024-03-08T00:24:40;0.90;99.90
8093;DHT22;4089;52.420;13.334;2024-03-08T00:27:11;0.90;99.90
8093;DHT22;4089;52.420;13.334;2024-03-08T00:29:39;0.90;99.90
8093;DHT22;4089;52.420;13.334;2024-03-08T00:32:07;0.90;99.90
8093;DHT22;4089;52.420;13.334;2024-03-08T00:34:35;0.90;99.90
8093;DHT22;4089;52.420;13.334;2024-03-08T00:37:12;0.90;99.90
8093;DHT22;4089;52.420;13.334;2024-03-08T00:39:40;0.90;99.90
8093;DHT22;4089;52.420;13.334;2024-03-08T00:42:08;1.00;99.90
8093;DHT22;4089;52.420;13.334;2024-03-08T00:44:36;0.90;99.90
8093;DHT22;4089;52.420;13.334;2024-03-08T00:47:05;0.90;99.90
8093;DHT22;4089;52.420;13.334;2024-03-08T00:49:34;0.90;99.90
8093;DHT22;4089;52.420;13.334;2024-03-08T00:52:02;0.90;99.90
8093;DHT22;4089;52.420;13.334;2024-03-08T00:54:33;0.90;99.90
8093;DHT22;4089;52.420;13.334;2024-03-08T00:57:08;0.90;99.90
8093;DHT22;4089;52.420;13.334;2024-03-08T00:59:53;0.90;99.90
8093;DHT22;4089;52.420;13.334;2024-03-08T01:02:23;0.90;99.90
8093;DHT22;4089;52.420;13.334;2024-03-08T01:04:52;0.90;99.90
8093;DHT22;4089;52.420;13.334;2024-03-08T01:07:21;0.90;99.90
8093;DHT22;4089;52.420;13.334;2024-03-08T01:09:52;0.90;99.90
8093;DHT22;4089;52.420;13.334;2024-03-08T01:12:20;0.90;99.90
8093;DHT22;4089;52.420;13.334;2024-03-08T01:14:52;0.90;99.90
8093;DHT22;4089;52.420;13.334;2024-03-08T01:17:23;0.90;99.90
8093;DHT22;4089;52.420;13.334;2024-03-08T01:19:51;0.90;99.90
8093;DHT22;4089;52.420;13.334;2024-03-08T01:22:20;0.80;99.90
8093;DHT22;4089;52.420;13.334;2024-03-08T01:24:49;0.80;99.90
8093;DHT22;4089;52.420;13.334;2024-03-08T01:27:16;0.80;99.90
8093;DHT22;4089;52.420;13.334;2024-03-08T01:29:47;0.80;99.90
8093;DHT22;4089;52.420;13.334;2024-03-08T01:32:18;0.80;99.90
8093;DHT22;4089;52.420;13.334;2024-03-08T01:34:49;0.80;99.90
8093;DHT22;4089;52.420;13.334;2024-03-08T01:37:20;0.80;99.90
8093;DHT22;4089;52.420;13.334;2024-03-08T01:39:48;0.80;99.90
8093;DHT22;4089;52.420;13.334;2024-03-08T01:42:21;0.80;99.90
8093;DHT22;4089;52.420;13.334;2024-03-08T01:44:49;0.80;99.90
8093;DHT22;4089;52.420;13.334;2024-03-08T01:47:22;0.80;99.90
8093;DHT22;4089;52.420;13.334;2024-03-08T01:49:50;0.70;99.90
8093;DHT22;4089;52.420;13.334;2024-03-08T01:52:19;0.70;99.90
8093;DHT22;4089;52.420;13.334;2024-03-08T01:54:48;0.70;99.90
8093;DHT22;4089;52.420;13.334;2024-03-08T01:57:17;0.70;99.90
8093;DHT22;4089;52.420;13.334;2024-03-08T01:59:47;0.60;99.90
8093;DHT22;4089;52.420;13.334;2024-03-08T02:02:18;0.60;99.90
8093;DHT22;4089;52.420;13.334;2024-03-08T02:04:48;0.60;99.90
8093;DHT22;4089;52.420;13.334;2024-03-08T02:07:15;0.60;99.90
8093;DHT22;4089;52.420;13.334;2024-03-08T02:09:43;0.60;99.90
8093;DHT22;4089;52.420;13.334;2024-03-08T02:12:11;0.60;99.90
8093;DHT22;4089;52.420;13.334;2024-03-08T02:14:39;0.60;99.90
8093;DHT22;4089;52.420;13.334;2024-03-08T02:17:07;0.50;99.90
8093;DHT22;4089;52.420;13.334;2024-03-08T02:19:37;0.50;99.90
8093;DHT22;4089;52.420;13.334;2024-03-08T02:22:06;0.50;99.90
8093;DHT22;4089;52.420;13.334;2024-03-08T02:24:34;0.50;99.90
8093;DHT22;4089;52.420;13.334;2024-03-08T02:27:05;0.50;99.90
8093;DHT22;4089;52.420;13.334;2024-03-08T02:29:37;0.40;99.90
8093;DHT22;4089;52.420;13.334;2024-03-08T02:32:05;0.40;99.90
8093;DHT22;4089;52.420;13.334;2024-03-08T02:34:34;0.40;99.90
8093;DHT22;4089;52.420;13.334;2024-03-08T02:37:04;0.40;99.90
8093;DHT22;4089;52.420;13.334;2024-03-08T02:39:32;0.40;99.90
8093;DHT22;4089;52.420;13.334;2024-03-08T02:42:00;0.40;99.90
8093;DHT22;4089;52.420;13.334;2024-03-08T02:48:17;0.40;99.90
8093;DHT22;4089;52.420;13.334;2024-03-08T02:50:46;0.40;99.90
8093;DHT22;4089;52.420;13.334;2024-03-08T02:53:14;0.30;99.90
8093;DHT22;4089;52.420;13.334;2024-03-08T02:55:48;0.30;99.90
8093;DHT22;4089;52.420;13.334;2024-03-08T02:58:22;0.30;99.90
8093;DHT22;4089;52.420;13.334;2024-03-08T03:00:53;0.30;99.90
8093;DHT22;4089;52.420;13.334;2024-03-08T03:03:22;0.30;99.90
8093;DHT22;4089;52.420;13.334;2024-03-08T03:05:50;0.20;99.90
8093;DHT22;4089;52.420;13.334;2024-03-08T03:08:24;0.20;99.90
8093;DHT22;4089;52.420;13.334;2024-03-08T03:10:52;0.20;99.90
8093;DHT22;4089;52.420;13.334;2024-03-08T03:13:24;0.20;99.90
8093;DHT22;4089;52.420;13.334;2024-03-08T03:15:57;0.40;99.90
8093;DHT22;4089;52.420;13.334;2024-03-08T03:18:25;0.20;99.90
8093;DHT22;4089;52.420;13.334;2024-03-08T03:20:56;0.20;99.90
8093;DHT22;4089;52.420;13.334;2024-03-08T03:23:27;0.20;99.90
8093;DHT22;4089;52.420;13.334;2024-03-08T03:25:55;0.20;99.90
8093;DHT22;4089;52.420;13.334;2024-03-08T03:28:25;0.10;99.90
8093;DHT22;4089;52.420;13.334;2024-03-08T03:30:53;0.10;99.90
8093;DHT22;4089;52.420;13.334;2024-03-08T03:33:27;0.10;99.90
8093;DHT22;4089;52.420;13.334;2024-03-08T03:35:55;0.10;99.90
8093;DHT22;4089;52.420;13.334;2024-03-08T03:38:23;0.10;99.90
8093;DHT22;4089;52.420;13.334;2024-03-08T03:40:54;0.10;99.90
8093;DHT22;4089;52.420;13.334;2024-03-08T03:43:25;0.10;99.90
8093;DHT22;4089;52.420;13.334;2024-03-08T03:45:53;0.10;99.90
8093;DHT22;4089;52.420;13.334;2024-03-08T03:48:24;0.10;99.90
8093;DHT22;4089;52.420;13.334;2024-03-08T03:50:55;0.10;99.90
8093;DHT22;4089;52.420;13.334;2024-03-08T03:53:26;0.00;99.90
8093;DHT22;4089;52.420;13.334;2024-03-08T03:55:55;0.10;99.90
8093;DHT22;4089;52.420;13.334;2024-03-08T03:58:23;0.10;99.90
8093;DHT22;4089;52.420;13.334;2024-03-08T04:00:54;0.10;99.90
8093;DHT22;4089;52.420;13.334;2024-03-08T04:03:22;0.00;99.90
8093;DHT22;4089;52.420;13.334;2024-03-08T04:05:50;0.00;99.90
8093;DHT22;4089;52.420;13.334;2024-03-08T04:08:19;0.00;99.90
8093;DHT22;4089;52.420;13.334;2024-03-08T04:10:47;0.00;99.90
8093;DHT22;4089;52.420;13.334;2024-03-08T04:13:17;0.00;99.90
8093;DHT22;4089;52.420;13.334;2024-03-08T04:15:45;0.00;99.90
8093;DHT22;4089;52.420;13.334;2024-03-08T04:18:16;0.00;99.90
8093;DHT22;4089;52.420;13.334;2024-03-08T04:20:48;0.00;99.90
8093;DHT22;4089;52.420;13.334;2024-03-08T04:23:16;0.00;99.90
8093;DHT22;4089;52.420;13.334;2024-03-08T04:25:45;0.00;99.90
8093;DHT22;4089;52.420;13.334;2024-03-08T04:28:19;0.00;99.90
8093;DHT22;4089;52.420;13.334;2024-03-08T04:30:48;-0.10;99.90
8093;DHT22;4089;52.420;13.334;2024-03-08T04:33:17;-0.10;99.90
8093;DHT22;4089;52.420;13.334;2024-03-08T04:35:46;-0.10;99.90
8093;DHT22;4089;52.420;13.334;2024-03-08T04:38:16;-0.10;99.90
8093;DHT22;4089;52.420;13.334;2024-03-08T04:40:47;-0.20;99.90
8093;DHT22;4089;52.420;13.334;2024-03-08T04:43:18;-0.20;99.90
8093;DHT22;4089;52.420;13.334;2024-03-08T04:45:49;-0.20;99.90
8093;DHT22;4089;52.420;13.334;2024-03-08T04:48:17;-0.20;99.90
8093;DHT22;4089;52.420;13.334;2024-03-08T04:50:45;-0.20;99.90
8093;DHT22;4089;52.420;13.334;2024-03-08T04:53:16;-0.20;99.90
8093;DHT22;4089;52.420;13.334;2024-03-08T04:55:49;-0.20;99.90
8093;DHT22;4089;52.420;13.334;2024-03-08T04:58:38;-0.30;99.90
8093;DHT22;4089;52.420;13.334;2024-03-08T05:01:06;-0.20;99.90
8093;DHT22;4089;52.420;13.334;2024-03-08T05:03:43;-0.30;99.90
8093;DHT22;4089;52.420;13.334;2024-03-08T05:06:11;-0.20;99.90
8093;DHT22;4089;52.420;13.334;2024-03-08T05:08:39;-0.20;99.90
8093;DHT22;4089;52.420;13.334;2024-03-08T05:11:10;-0.20;99.90
8093;DHT22;4089;52.420;13.334;2024-03-08T05:13:38;-0.30;99.90
8093;DHT22;4089;52.420;13.334;2024-03-08T05:16:06;-0.30;99.90
8093;DHT22;4089;52.420;13.334;2024-03-08T05:18:35;-0.30;99.90
8093;DHT22;4089;52.420;13.334;2024-03-08T05:21:04;-0.30;99.90
8093;DHT22;4089;52.420;13.334;2024-03-08T05:23:34;-0.30;99.90
8093;DHT22;4089;52.420;13.334;2024-03-08T05:26:02;-0.30;99.90
8093;DHT22;4089;52.420;13.334;2024-03-08T05:28:33;-0.40;99.90
8093;DHT22;4089;52.420;13.334;2024-03-08T05:31:03;-0.40;99.90
8093;DHT22;4089;52.420;13.334;2024-03-08T05:33:31;-0.40;99.90
8093;DHT22;4089;52.420;13.334;2024-03-08T05:36:00;-0.40;99.90
8093;DHT22;4089;52.420;13.334;2024-03-08T05:38:31;-0.40;99.90
8093;DHT22;4089;52.420;13.334;2024-03-08T05:41:02;-0.40;99.90
8093;DHT22;4089;52.420;13.334;2024-03-08T05:43:30;-0.40;99.90
8093;DHT22;4089;52.420;13.334;2024-03-08T05:45:58;-0.40;99.90
8093;DHT22;4089;52.420;13.334;2024-03-08T05:48:26;-0.40;99.90
8093;DHT22;4089;52.420;13.334;2024-03-08T05:50:55;-0.40;99.90
8093;DHT22;4089;52.420;13.334;2024-03-08T05:53:24;-0.40;99.90
8093;DHT22;4089;52.420;13.334;2024-03-08T05:55:52;-0.40;99.90
8093;DHT22;4089;52.420;13.334;2024-03-08T05:58:21;-0.40;99.90
8093;DHT22;4089;52.420;13.334;2024-03-08T06:00:48;-0.30;99.90
8093;DHT22;4089;52.420;13.334;2024-03-08T06:03:19;-0.30;99.90
8093;DHT22;4089;52.420;13.334;2024-03-08T06:05:49;-0.30;99.90
8093;DHT22;4089;52.420;13.334;2024-03-08T06:08:19;-0.30;99.90
8093;DHT22;4089;52.420;13.334;2024-03-08T06:10:50;-0.30;99.90
8093;DHT22;4089;52.420;13.334;2024-03-08T06:13:20;-0.20;99.90
8093;DHT22;4089;52.420;13.334;2024-03-08T06:15:48;-0.20;99.90
8093;DHT22;4089;52.420;13.334;2024-03-08T06:18:19;-0.20;99.90
8093;DHT22;4089;52.420;13.334;2024-03-08T06:20:48;-0.20;99.90
8093;DHT22;4089;52.420;13.334;2024-03-08T06:23:18;-0.20;99.90
8093;DHT22;4089;52.420;13.334;2024-03-08T06:25:46;-0.10;99.90
8093;DHT22;4089;52.420;13.334;2024-03-08T06:28:14;-0.10;99.90
8093;DHT22;4089;52.420;13.334;2024-03-08T06:30:45;0.00;99.90
8093;DHT22;4089;52.420;13.334;2024-03-08T06:33:13;0.00;99.90
8093;DHT22;4089;52.420;13.334;2024-03-08T06:35:42;0.10;99.90
8093;DHT22;4089;52.420;13.334;2024-03-08T06:38:10;0.10;99.90
8093;DHT22;4089;52.420;13.334;2024-03-08T06:40:39;0.20;99.90
8093;DHT22;4089;52.420;13.334;2024-03-08T06:43:08;0.20;99.90
8093;DHT22;4089;52.420;13.334;2024-03-08T06:45:39;0.30;99.90
8093;DHT22;4089;52.420;13.334;2024-03-08T06:48:07;0.40;99.90
8093;DHT22;4089;52.420;13.334;2024-03-08T06:50:37;0.40;99.90
8093;DHT22;4089;52.420;13.334;2024-03-08T06:53:07;0.50;99.90
8093;DHT22;4089;52.420;13.334;2024-03-08T06:55:37;0.60;99.90
8093;DHT22;4089;52.420;13.334;2024-03-08T06:58:12;0.70;99.90
8093;DHT22;4089;52.420;13.334;2024-03-08T07:00:40;0.80;99.90
8093;DHT22;4089;52.420;13.334;2024-03-08T07:03:08;0.90;99.90
8093;DHT22;4089;52.420;13.334;2024-03-08T07:05:39;1.00;99.90
8093;DHT22;4089;52.420;13.334;2024-03-08T07:08:08;1.10;99.90
8093;DHT22;4089;52.420;13.334;2024-03-08T07:10:36;1.10;99.90
8093;DHT22;4089;52.420;13.334;2024-03-08T07:13:07;1.20;99.90
8093;DHT22;4089;52.420;13.334;2024-03-08T07:15:34;1.30;99.90
8093;DHT22;4089;52.420;13.334;2024-03-08T07:18:03;1.40;99.90
8093;DHT22;4089;52.420;13.334;2024-03-08T07:20:33;1.40;99.90
8093;DHT22;4089;52.420;13.334;2024-03-08T07:23:00;1.50;99.90
8093;DHT22;4089;52.420;13.334;2024-03-08T07:25:28;1.60;99.90
8093;DHT22;4089;52.420;13.334;2024-03-08T07:27:59;1.70;99.90
8093;DHT22;4089;52.420;13.334;2024-03-08T07:30:28;1.70;99.90
8093;DHT22;4089;52.420;13.334;2024-03-08T07:33:12;1.80;99.90
8093;DHT22;4089;52.420;13.334;2024-03-08T07:35:41;1.90;99.90
8093;DHT22;4089;52.420;13.334;2024-03-08T07:38:13;2.00;99.90
8093;DHT22;4089;52.420;13.334;2024-03-08T07:40:41;2.00;99.90
8093;DHT22;4089;52.420;13.334;2024-03-08T07:43:15;2.10;99.90
8093;DHT22;4089;52.420;13.334;2024-03-08T07:45:43;2.20;99.90
8093;DHT22;4089;52.420;13.334;2024-03-08T07:48:11;2.30;99.90
8093;DHT22;4089;52.420;13.334;2024-03-08T07:50:42;2.40;99.90
8093;DHT22;4089;52.420;13.334;2024-03-08T07:53:11;2.50;99.90
8093;DHT22;4089;52.420;13.334;2024-03-08T07:55:39;2.60;99.90
8093;DHT22;4089;52.420;13.334;2024-03-08T07:58:12;2.60;99.90
8093;DHT22;4089;52.420;13.334;2024-03-08T08:00:41;2.70;99.90
8093;DHT22;4089;52.420;13.334;2024-03-08T08:03:13;2.80;99.90
8093;DHT22;4089;52.420;13.334;2024-03-08T08:05:41;2.80;99.90
8093;DHT22;4089;52.420;13.334;2024-03-08T08:08:09;2.90;99.90
8093;DHT22;4089;52.420;13.334;2024-03-08T08:10:39;3.00;99.90
8093;DHT22;4089;52.420;13.334;2024-03-08T08:13:07;3.10;99.90
8093;DHT22;4089;52.420;13.334;2024-03-08T08:15:35;3.20;99.90
8093;DHT22;4089;52.420;13.334;2024-03-08T08:18:11;3.30;99.90
8093;DHT22;4089;52.420;13.334;2024-03-08T08:20:54;3.40;99.90
8093;DHT22;4089;52.420;13.334;2024-03-08T08:23:24;3.50;99.90
8093;DHT22;4089;52.420;13.334;2024-03-08T08:25:54;3.60;99.90
8093;DHT22;4089;52.420;13.334;2024-03-08T08:28:23;3.80;99.90
8093;DHT22;4089;52.420;13.334;2024-03-08T08:30:52;3.90;99.90
8093;DHT22;4089;52.420;13.334;2024-03-08T08:33:20;4.00;99.90
8093;DHT22;4089;52.420;13.334;2024-03-08T08:35:48;4.10;99.90
8093;DHT22;4089;52.420;13.334;2024-03-08T08:38:16;4.20;99.90
8093;DHT22;4089;52.420;13.334;2024-03-08T08:40:48;4.40;99.90
8093;DHT22;4089;52.420;13.334;2024-03-08T08:43:16;4.50;99.90
8093;DHT22;4089;52.420;13.334;2024-03-08T08:45:45;4.60;99.90
8093;DHT22;4089;52.420;13.334;2024-03-08T08:48:14;4.80;99.90
8093;DHT22;4089;52.420;13.334;2024-03-08T08:50:44;4.90;99.90
8093;DHT22;4089;52.420;13.334;2024-03-08T08:53:18;5.00;99.90
8093;DHT22;4089;52.420;13.334;2024-03-08T08:55:48;5.00;99.90
8093;DHT22;4089;52.420;13.334;2024-03-08T08:58:17;5.20;99.90
8093;DHT22;4089;52.420;13.334;2024-03-08T09:00:46;5.40;99.90
8093;DHT22;4089;52.420;13.334;2024-03-08T09:03:17;5.50;99.90
8093;DHT22;4089;52.420;13.334;2024-03-08T09:05:45;5.50;99.90
8093;DHT22;4089;52.420;13.334;2024-03-08T09:08:13;5.60;99.90
8093;DHT22;4089;52.420;13.334;2024-03-08T09:10:43;5.70;99.90
8093;DHT22;4089;52.420;13.334;2024-03-08T09:13:12;5.70;99.60
8093;DHT22;4089;52.420;13.334;2024-03-08T09:15:56;5.70;99.40
8093;DHT22;4089;52.420;13.334;2024-03-08T09:18:24;5.80;99.10
8093;DHT22;4089;52.420;13.334;2024-03-08T09:20:52;5.80;98.20
8093;DHT22;4089;52.420;13.334;2024-03-08T09:23:21;5.90;98.60
8093;DHT22;4089;52.420;13.334;2024-03-08T09:25:51;6.00;97.90
8093;DHT22;4089;52.420;13.334;2024-03-08T09:28:19;6.00;97.50
8093;DHT22;4089;52.420;13.334;2024-03-08T09:30:47;6.10;99.20
8093;DHT22;4089;52.420;13.334;2024-03-08T09:33:26;6.30;98.20
8093;DHT22;4089;52.420;13.334;2024-03-08T09:35:56;6.40;97.00
8093;DHT22;4089;52.420;13.334;2024-03-08T09:38:28;6.60;99.90
8093;DHT22;4089;52.420;13.334;2024-03-08T09:40:57;6.70;97.50
8093;DHT22;4089;52.420;13.334;2024-03-08T09:43:25;6.80;96.90
8093;DHT22;4089;52.420;13.334;2024-03-08T09:45:56;6.70;94.90
8093;DHT22;4089;52.420;13.334;2024-03-08T09:48:28;6.60;94.80
8093;DHT22;4089;52.420;13.334;2024-03-08T09:51:00;6.70;94.80
8093;DHT22;4089;52.420;13.334;2024-03-08T09:53:31;6.70;95.50
8093;DHT22;4089;52.420;13.334;2024-03-08T09:56:03;6.80;93.90
8093;DHT22;4089;52.420;13.334;2024-03-08T09:58:31;6.80;93.50
8093;DHT22;4089;52.420;13.334;2024-03-08T10:00:59;6.70;91.10
8093;DHT22;4089;52.420;13.334;2024-03-08T10:03:35;6.70;91.20
8093;DHT22;4089;52.420;13.334;2024-03-08T10:06:03;6.60;90.00
8093;DHT22;4089;52.420;13.334;2024-03-08T10:08:33;6.70;90.70
8093;DHT22;4089;52.420;13.334;2024-03-08T10:11:01;6.80;91.00
8093;DHT22;4089;52.420;13.334;2024-03-08T10:13:33;7.00;90.70
8093;DHT22;4089;52.420;13.334;2024-03-08T10:16:06;7.10;90.70
8093;DHT22;4089;52.420;13.334;2024-03-08T10:18:41;7.20;89.40
8093;DHT22;4089;52.420;13.334;2024-03-08T10:21:12;7.10;89.60
8093;DHT22;4089;52.420;13.334;2024-03-08T10:23:48;7.20;86.70
8093;DHT22;4089;52.420;13.334;2024-03-08T10:26:19;7.20;85.90
8093;DHT22;4089;52.420;13.334;2024-03-08T10:28:49;7.30;84.00
8093;DHT22;4089;52.420;13.334;2024-03-08T10:31:21;7.30;84.20
8093;DHT22;4089;52.420;13.334;2024-03-08T10:33:49;7.20;83.40
8093;DHT22;4089;52.420;13.334;2024-03-08T10:36:21;7.30;83.10
8093;DHT22;4089;52.420;13.334;2024-03-08T10:38:54;7.50;84.80
8093;DHT22;4089;52.420;13.334;2024-03-08T10:41:29;7.60;81.80
8093;DHT22;4089;52.420;13.334;2024-03-08T10:49:32;7.80;75.70
8093;DHT22;4089;52.420;13.334;2024-03-08T10:52:07;7.80;77.30
8093;DHT22;4089;52.420;13.334;2024-03-08T10:54:47;7.80;75.30
8093;DHT22;4089;52.420;13.334;2024-03-08T10:57:20;7.90;74.80
8093;DHT22;4089;52.420;13.334;2024-03-08T10:59:53;7.90;72.00
8093;DHT22;4089;52.420;13.334;2024-03-08T11:02:30;7.90;73.30
8093;DHT22;4089;52.420;13.334;2024-03-08T11:05:05;8.00;70.30
8093;DHT22;4089;52.420;13.334;2024-03-08T11:07:43;7.90;70.70
8093;DHT22;4089;52.420;13.334;2024-03-08T11:10:20;8.00;70.80
8093;DHT22;4089;52.420;13.334;2024-03-08T11:12:48;7.80;69.10
8093;DHT22;4089;52.420;13.334;2024-03-08T11:15:21;7.90;71.60
8093;DHT22;4089;52.420;13.334;2024-03-08T11:17:51;8.00;68.30
8093;DHT22;4089;52.420;13.334;2024-03-08T11:20:23;8.10;67.60
8093;DHT22;4089;52.420;13.334;2024-03-08T11:23:00;8.10;65.80
8093;DHT22;4089;52.420;13.334;2024-03-08T11:25:40;8.10;63.90
8093;DHT22;4089;52.420;13.334;2024-03-08T11:33:40;8.70;63.40
8093;DHT22;4089;52.420;13.334;2024-03-08T11:36:12;8.60;61.10
8093;DHT22;4089;52.420;13.334;2024-03-08T11:38:47;8.70;60.90
8093;DHT22;4089;52.420;13.334;2024-03-08T11:41:20;8.60;58.70
8093;DHT22;4089;52.420;13.334;2024-03-08T11:43:50;8.40;57.80
8093;DHT22;4089;52.420;13.334;2024-03-08T11:46:36;8.60;58.80
8093;DHT22;4089;52.420;13.334;2024-03-08T11:49:07;8.80;59.90
8093;DHT22;4089;52.420;13.334;2024-03-08T11:51:41;9.00;58.30
8093;DHT22;4089;52.420;13.334;2024-03-08T11:54:13;8.90;55.80
8093;DHT22;4089;52.420;13.334;2024-03-08T11:56:42;8.80;54.90
8093;DHT22;4089;52.420;13.334;2024-03-08T11:59:13;9.00;57.60
8093;DHT22;4089;52.420;13.334;2024-03-08T12:01:42;9.10;56.10
8093;DHT22;4089;52.420;13.334;2024-03-08T12:04:12;9.00;51.30
8093;DHT22;4089;52.420;13.334;2024-03-08T12:06:41;9.10;53.20
8093;DHT22;4089;52.420;13.334;2024-03-08T12:09:12;9.20;52.90
8093;DHT22;4089;52.420;13.334;2024-03-08T12:11:44;9.40;51.80
8093;DHT22;4089;52.420;13.334;2024-03-08T12:14:15;9.50;48.30
8093;DHT22;4089;52.420;13.334;2024-03-08T12:16:43;9.50;47.80
8093;DHT22;4089;52.420;13.334;2024-03-08T12:19:14;9.30;45.90
8093;DHT22;4089;52.420;13.334;2024-03-08T12:21:42;9.30;47.60
8093;DHT22;4089;52.420;13.334;2024-03-08T12:24:17;9.40;48.60
8093;DHT22;4089;52.420;13.334;2024-03-08T12:26:47;9.50;47.00
8093;DHT22;4089;52.420;13.334;2024-03-08T12:29:26;9.50;45.40
8093;DHT22;4089;52.420;13.334;2024-03-08T12:31:59;9.50;45.40
8093;DHT22;4089;52.420;13.334;2024-03-08T12:34:28;9.40;44.20
8093;DHT22;4089;52.420;13.334;2024-03-08T12:36:56;9.50;46.10
8093;DHT22;4089;52.420;13.334;2024-03-08T12:39:24;9.50;45.30
8093;DHT22;4089;52.420;13.334;2024-03-08T12:42:01;9.60;47.10
8093;DHT22;4089;52.420;13.334;2024-03-08T12:44:29;9.70;45.60
8093;DHT22;4089;52.420;13.334;2024-03-08T12:46:57;9.70;43.60
8093;DHT22;4089;52.420;13.334;2024-03-08T12:49:29;9.80;45.60
8093;DHT22;4089;52.420;13.334;2024-03-08T12:51:58;9.80;45.00
8093;DHT22;4089;52.420;13.334;2024-03-08T12:54:26;10.00;44.30
8093;DHT22;4089;52.420;13.334;2024-03-08T12:56:59;10.00;43.20
8093;DHT22;4089;52.420;13.334;2024-03-08T12:59:35;9.90;43.10
8093;DHT22;4089;52.420;13.334;2024-03-08T13:02:10;9.90;45.90
8093;DHT22;4089;52.420;13.334;2024-03-08T13:04:38;9.90;44.10
8093;DHT22;4089;52.420;13.334;2024-03-08T13:07:09;9.90;44.80
8093;DHT22;4089;52.420;13.334;2024-03-08T13:09:37;10.00;45.10
8093;DHT22;4089;52.420;13.334;2024-03-08T13:12:06;10.20;43.90
8093;DHT22;4089;52.420;13.334;2024-03-08T13:14:36;10.30;44.10
8093;DHT22;4089;52.420;13.334;2024-03-08T13:17:04;10.30;41.00
8093;DHT22;4089;52.420;13.334;2024-03-08T13:19:32;10.20;42.70
8093;DHT22;4089;52.420;13.334;2024-03-08T13:22:01;10.10;41.70
8093;DHT22;4089;52.420;13.334;2024-03-08T13:24:32;10.10;41.70
8093;DHT22;4089;52.420;13.334;2024-03-08T13:27:01;9.80;39.90
8093;DHT22;4089;52.420;13.334;2024-03-08T13:29:29;9.80;40.90
8093;DHT22;4089;52.420;13.334;2024-03-08T13:31:57;9.80;41.40
8093;DHT22;4089;52.420;13.334;2024-03-08T13:34:29;9.90;42.40
8093;DHT22;4089;52.420;13.334;2024-03-08T13:36:57;9.90;43.40
8093;DHT22;4089;52.420;13.334;2024-03-08T13:39:30;10.10;43.20
8093;DHT22;4089;52.420;13.334;2024-03-08T13:42:08;10.00;43.40
8093;DHT22;4089;52.420;13.334;2024-03-08T13:44:44;10.10;44.70
8093;DHT22;4089;52.420;13.334;2024-03-08T13:47:14;9.80;45.50
8093;DHT22;4089;52.420;13.334;2024-03-08T13:49:46;9.90;46.20
8093;DHT22;4089;52.420;13.334;2024-03-08T13:52:14;10.00;45.50
8093;DHT22;4089;52.420;13.334;2024-03-08T13:54:42;10.20;45.70
8093;DHT22;4089;52.420;13.334;2024-03-08T13:57:12;10.30;44.20
8093;DHT22;4089;52.420;13.334;2024-03-08T13:59:39;10.40;44.10
8093;DHT22;4089;52.420;13.334;2024-03-08T14:02:10;10.50;44.70
8093;DHT22;4089;52.420;13.334;2024-03-08T14:04:41;10.50;42.70
8093;DHT22;4089;52.420;13.334;2024-03-08T14:07:12;10.60;42.70
8093;DHT22;4089;52.420;13.334;2024-03-08T14:09:41;10.60;42.30
8093;DHT22;4089;52.420;13.334;2024-03-08T14:12:10;10.50;41.90
8093;DHT22;4089;52.420;13.334;2024-03-08T14:14:43;10.50;42.80
8093;DHT22;4089;52.420;13.334;2024-03-08T14:17:12;10.30;42.40
8093;DHT22;4089;52.420;13.334;2024-03-08T14:19:44;10.30;42.90
8093;DHT22;4089;52.420;13.334;2024-03-08T14:22:15;10.20;43.10
8093;DHT22;4089;52.420;13.334;2024-03-08T14:24:43;10.20;43.00
8093;DHT22;4089;52.420;13.334;2024-03-08T14:27:14;10.20;42.70
8093;DHT22;4089;52.420;13.334;2024-03-08T14:29:46;10.20;43.30
8093;DHT22;4089;52.420;13.334;2024-03-08T14:32:14;10.20;43.80
8093;DHT22;4089;52.420;13.334;2024-03-08T14:34:42;10.20;42.40
8093;DHT22;4089;52.420;13.334;2024-03-08T14:37:11;10.30;43.50
8093;DHT22;4089;52.420;13.334;2024-03-08T14:39:39;10.50;44.00
8093;DHT22;4089;52.420;13.334;2024-03-08T14:42:06;10.90;43.60
8093;DHT22;4089;52.420;13.334;2024-03-08T14:44:38;11.50;42.10
8093;DHT22;4089;52.420;13.334;2024-03-08T14:47:08;11.90;40.20
8093;DHT22;4089;52.420;13.334;2024-03-08T14:49:38;12.10;38.80
8093;DHT22;4089;52.420;13.334;2024-03-08T14:52:06;12.40;40.10
8093;DHT22;4089;52.420;13.334;2024-03-08T14:54:55;12.40;37.70
8093;DHT22;4089;52.420;13.334;2024-03-08T14:57:23;12.20;37.20
8093;DHT22;4089;52.420;13.334;2024-03-08T14:59:51;12.10;36.70
8093;DHT22;4089;52.420;13.334;2024-03-08T15:02:19;12.50;36.60
8093;DHT22;4089;52.420;13.334;2024-03-08T15:04:47;12.20;35.70
8093;DHT22;4089;52.420;13.334;2024-03-08T15:07:25;12.90;36.20
8093;DHT22;4089;52.420;13.334;2024-03-08T15:09:55;12.70;35.40
8093;DHT22;4089;52.420;13.334;2024-03-08T15:12:31;12.80;35.20
8093;DHT22;4089;52.420;13.334;2024-03-08T15:14:59;12.90;35.80
8093;DHT22;4089;52.420;13.334;2024-03-08T15:17:33;13.00;34.40
8093;DHT22;4089;52.420;13.334;2024-03-08T15:20:02;13.40;35.00
8093;DHT22;4089;52.420;13.334;2024-03-08T15:22:53;13.20;33.80
8093;DHT22;4089;52.420;13.334;2024-03-08T15:25:26;13.30;34.40
8093;DHT22;4089;52.420;13.334;2024-03-08T15:28:00;13.60;33.30
8093;DHT22;4089;52.420;13.334;2024-03-08T15:30:40;13.50;32.40
8093;DHT22;4089;52.420;13.334;2024-03-08T15:33:15;13.70;33.70
8093;DHT22;4089;52.420;13.334;2024-03-08T15:35:59;13.80;32.40
8093;DHT22;4089;52.420;13.334;2024-03-08T15:38:54;14.50;33.50
8093;DHT22;4089;52.420;13.334;2024-03-08T15:41:37;15.50;31.10
8093;DHT22;4089;52.420;13.334;2024-03-08T15:44:10;15.30;29.10
8093;DHT22;4089;52.420;13.334;2024-03-08T15:46:53;15.10;29.40
8093;DHT22;4089;52.420;13.334;2024-03-08T15:49:33;14.50;29.30
8093;DHT22;4089;52.420;13.334;2024-03-08T15:52:05;14.50;29.60
8093;DHT22;4089;52.420;13.334;2024-03-08T15:54:36;14.20;28.70
8093;DHT22;4089;52.420;13.334;2024-03-08T15:57:05;13.90;28.10
8093;DHT22;4089;52.420;13.334;2024-03-08T15:59:38;14.40;29.20
8093;DHT22;4089;52.420;13.334;2024-03-08T16:02:08;14.40;28.50
8093;DHT22;4089;52.420;13.334;2024-03-08T16:04:46;14.70;28.40
8093;DHT22;4089;52.420;13.334;2024-03-08T16:07:26;14.90;28.50
8093;DHT22;4089;52.420;13.334;2024-03-08T16:10:00;13.80;27.70
8093;DHT22;4089;52.420;13.334;2024-03-08T16:12:35;13.40;29.40
8093;DHT22;4089;52.420;13.334;2024-03-08T16:15:04;13.40;29.60
8093;DHT22;4089;52.420;13.334;2024-03-08T16:17:35;13.30;30.00
8093;DHT22;4089;52.420;13.334;2024-03-08T16:20:02;13.60;30.50
8093;DHT22;4089;52.420;13.334;2024-03-08T16:22:45;13.90;31.50
8093;DHT22;4089;52.420;13.334;2024-03-08T16:25:13;13.60;30.10
8093;DHT22;4089;52.420;13.334;2024-03-08T16:27:41;12.60;30.70
8093;DHT22;4089;52.420;13.334;2024-03-08T16:30:10;12.20;32.00
8093;DHT22;4089;52.420;13.334;2024-03-08T16:32:43;11.50;32.00
8093;DHT22;4089;52.420;13.334;2024-03-08T16:35:19;11.00;33.40